createdAt,value
2018-05-13T00:00:28.088Z,13.37
2018-05-13T00:02:56.030Z,15.13
2018-05-13T00:05:24.111Z,14.70
2018-05-13T00:07:52.047Z,15.80
2018-05-13T00:10:20.000Z,13.23
2018-05-13T00:12:47.922Z,12.93
2018-05-13T00:15:15.847Z,14.10
2018-05-13T00:17:44.492Z,13.73
2018-05-13T00:20:12.503Z,14.03
2018-05-13T00:22:40.537Z,16.07
2018-05-13T00:25:08.466Z,16.40
2018-05-13T00:27:36.481Z,15.00
2018-05-13T00:30:04.425Z,15.13
2018-05-13T00:32:32.383Z,13.87
2018-05-13T00:35:00.424Z,14.70
2018-05-13T00:37:28.539Z,14.43
2018-05-13T00:39:56.475Z,15.93
2018-05-13T00:42:24.474Z,16.60
2018-05-13T00:44:52.416Z,15.30
2018-05-13T00:47:20.390Z,14.73
2018-05-13T00:49:49.016Z,17.00
2018-05-13T00:52:17.007Z,14.30
2018-05-13T00:54:51.738Z,14.10
2018-05-13T00:57:19.716Z,15.27
2018-05-13T00:59:47.716Z,16.33
2018-05-13T01:02:15.676Z,16.40
2018-05-13T01:04:43.628Z,15.00
2018-05-13T01:07:11.578Z,17.60
2018-05-13T01:09:39.624Z,15.43
2018-05-13T01:12:07.623Z,16.63
2018-05-13T01:14:35.606Z,14.33
2018-05-13T01:17:03.535Z,14.43
2018-05-13T01:19:31.485Z,16.30
2018-05-13T01:21:59.411Z,15.73
2018-05-13T01:24:27.322Z,15.60
2018-05-13T01:26:55.269Z,14.33
2018-05-13T01:29:23.209Z,16.30
2018-05-13T01:31:51.247Z,16.67
2018-05-13T01:34:19.250Z,15.40
2018-05-13T01:36:47.273Z,15.97
2018-05-13T01:39:15.303Z,14.80
2018-05-13T01:41:43.260Z,15.37
2018-05-13T01:44:11.183Z,15.80
2018-05-13T01:46:39.200Z,17.73
2018-05-13T01:49:07.111Z,16.50
2018-05-13T01:51:35.082Z,17.97
2018-05-13T01:54:03.001Z,17.63
2018-05-13T01:56:31.016Z,18.93
2018-05-13T01:58:58.997Z,16.40
2018-05-13T02:01:27.121Z,18.40
2018-05-13T02:03:55.056Z,19.17
2018-05-13T02:06:23.000Z,18.10
2018-05-13T02:08:50.919Z,17.77
2018-05-13T02:11:19.441Z,17.73
2018-05-13T02:13:47.347Z,18.23
2018-05-13T02:16:15.286Z,18.37
2018-05-13T02:18:43.498Z,15.97
2018-05-13T02:21:11.392Z,18.00
2018-05-13T02:23:39.351Z,18.03
2018-05-13T02:26:07.291Z,19.20
2018-05-13T02:28:35.207Z,19.00
2018-05-13T02:31:03.128Z,18.30
2018-05-13T02:33:31.308Z,17.47
2018-05-13T02:35:59.245Z,18.10
2018-05-13T02:38:27.958Z,17.00
2018-05-13T02:40:55.930Z,17.70
2018-05-13T02:43:23.930Z,18.70
2018-05-13T02:45:51.916Z,17.03
2018-05-13T02:48:19.931Z,18.67
2018-05-13T02:50:47.821Z,18.63
2018-05-13T02:53:15.865Z,20.90
2018-05-13T02:55:43.777Z,18.87
2018-05-13T02:58:11.771Z,19.87
2018-05-13T03:00:39.786Z,19.30
2018-05-13T03:03:07.699Z,17.70
2018-05-13T03:05:36.168Z,19.67
2018-05-13T03:08:04.106Z,19.83
2018-05-13T03:10:32.035Z,18.33
2018-05-13T03:13:00.054Z,19.67
2018-05-13T03:15:27.976Z,17.40
2018-05-13T03:17:55.907Z,19.83
2018-05-13T03:20:23.860Z,18.57
2018-05-13T03:22:51.853Z,19.20
2018-05-13T03:25:19.863Z,18.60
2018-05-13T03:27:47.780Z,18.83
2018-05-13T03:30:15.755Z,19.70
2018-05-13T03:32:43.705Z,17.90
2018-05-13T03:35:11.643Z,22.53
2018-05-13T03:37:39.618Z,18.90
2018-05-13T03:40:07.552Z,20.00
2018-05-13T03:42:35.555Z,19.67
2018-05-13T03:45:03.511Z,20.93
2018-05-13T03:47:31.439Z,20.80
2018-05-13T03:49:59.373Z,19.20
2018-05-13T03:52:27.352Z,22.93
2018-05-13T03:54:55.264Z,22.07
2018-05-13T03:57:23.296Z,19.30
2018-05-13T03:59:51.255Z,22.50
2018-05-13T04:02:19.212Z,20.60
2018-05-13T04:04:47.134Z,18.60
2018-05-13T04:07:15.106Z,22.57
2018-05-13T04:09:54.774Z,21.30
2018-05-13T04:12:34.377Z,22.83
2018-05-13T04:15:23.719Z,21.17
2018-05-13T04:17:51.667Z,25.50
2018-05-13T04:20:19.598Z,22.10
2018-05-13T04:22:47.568Z,21.07
2018-05-13T04:25:15.505Z,23.63
2018-05-13T04:27:43.510Z,23.77
2018-05-13T04:30:11.495Z,22.90
2018-05-13T04:32:39.416Z,24.80
2018-05-13T04:35:07.380Z,25.20
2018-05-13T04:37:35.305Z,24.47
2018-05-13T04:40:03.250Z,25.03
2018-05-13T04:42:31.194Z,25.90
2018-05-13T04:44:59.172Z,22.87
2018-05-13T04:47:27.256Z,24.47
2018-05-13T04:49:55.198Z,24.17
2018-05-13T04:52:23.145Z,20.93
2018-05-13T04:54:51.055Z,23.37
2018-05-13T04:57:19.047Z,24.70
2018-05-13T04:59:47.241Z,25.57
2018-05-13T05:02:15.191Z,27.03
2018-05-13T05:04:43.175Z,24.13
2018-05-13T05:07:11.108Z,24.63
2018-05-13T05:09:39.247Z,23.13
2018-05-13T05:12:07.294Z,24.10
2018-05-13T05:14:36.089Z,25.43
2018-05-13T05:17:04.185Z,25.20
2018-05-13T05:19:32.756Z,25.33
2018-05-13T05:22:00.738Z,23.87
2018-05-13T05:24:28.688Z,23.20
2018-05-13T05:26:56.804Z,24.33
2018-05-13T05:29:24.740Z,26.73
2018-05-13T05:31:52.728Z,25.13
2018-05-13T05:34:20.740Z,24.67
2018-05-13T05:36:48.710Z,24.33
2018-05-13T05:39:16.658Z,25.10
2018-05-13T05:41:44.682Z,25.57
2018-05-13T05:44:12.594Z,27.87
2018-05-13T05:46:40.529Z,25.17
2018-05-13T05:49:08.469Z,28.93
2018-05-13T05:51:36.402Z,26.40
2018-05-13T05:54:04.344Z,25.50
2018-05-13T05:56:32.296Z,28.57
2018-05-13T05:59:00.251Z,27.30
2018-05-13T06:01:28.256Z,28.70
2018-05-13T06:03:56.221Z,28.53
2018-05-13T06:06:24.171Z,31.00
2018-05-13T06:08:52.212Z,31.20
2018-05-13T06:11:20.131Z,30.20
2018-05-13T06:13:48.083Z,28.53
2018-05-13T06:16:16.767Z,30.60
2018-05-13T06:18:44.681Z,30.00
2018-05-13T06:21:12.749Z,28.23
2018-05-13T06:23:42.824Z,29.87
2018-05-13T06:26:10.784Z,28.30
2018-05-13T06:28:38.706Z,29.40
2018-05-13T06:31:06.630Z,31.20
2018-05-13T06:33:34.568Z,26.13
2018-05-13T06:36:02.583Z,30.40
2018-05-13T06:38:31.351Z,29.27
2018-05-13T06:40:59.270Z,32.87
2018-05-13T06:43:27.733Z,28.60
2018-05-13T06:45:55.664Z,29.60
2018-05-13T06:48:24.201Z,31.37
2018-05-13T06:50:52.132Z,30.20
2018-05-13T06:53:20.056Z,27.73
2018-05-13T06:55:47.990Z,27.80
2018-05-13T06:58:16.090Z,27.27
2018-05-13T07:00:44.058Z,26.73
2018-05-13T07:03:11.967Z,26.37
2018-05-13T07:05:40.607Z,25.23
2018-05-13T07:08:08.544Z,25.40
2018-05-13T07:10:36.474Z,24.90
2018-05-13T07:13:04.408Z,23.03
2018-05-13T07:15:32.615Z,24.50
2018-05-13T07:18:00.615Z,26.03
2018-05-13T07:20:28.627Z,26.10
2018-05-13T07:22:56.565Z,23.43
2018-05-13T07:25:24.544Z,23.33
2018-05-13T07:27:52.553Z,22.80
2018-05-13T07:30:20.469Z,23.60
2018-05-13T07:32:48.559Z,22.20
2018-05-13T07:35:16.475Z,22.70
2018-05-13T07:40:17.708Z,23.73
2018-05-13T07:42:45.673Z,23.40
2018-05-13T07:45:13.612Z,23.30
2018-05-13T07:47:41.577Z,22.33
2018-05-13T07:50:09.538Z,23.37
2018-05-13T07:52:37.475Z,22.73
2018-05-13T07:55:05.523Z,24.17
2018-05-13T07:57:33.547Z,23.70
2018-05-13T08:00:01.484Z,24.90
2018-05-13T08:02:29.516Z,21.53
2018-05-13T08:04:57.442Z,23.63
2018-05-13T08:07:25.533Z,24.70
2018-05-13T08:09:53.664Z,26.77
2018-05-13T08:12:21.578Z,23.40
2018-05-13T08:14:49.558Z,23.90
2018-05-13T08:17:17.656Z,23.40
2018-05-13T08:19:45.837Z,23.43
2018-05-13T08:22:13.867Z,23.07
2018-05-13T08:24:41.769Z,24.47
2018-05-13T08:27:09.702Z,25.10
2018-05-13T08:29:37.718Z,25.30
2018-05-13T08:32:05.681Z,22.13
2018-05-13T08:34:33.607Z,21.30
2018-05-13T08:37:01.558Z,22.53
2018-05-13T08:39:29.665Z,20.40
2018-05-13T08:41:58.346Z,20.40
2018-05-13T08:44:26.323Z,20.40
2018-05-13T08:46:54.399Z,21.67
2018-05-13T08:49:22.418Z,17.83
2018-05-13T08:51:50.387Z,19.17
2018-05-13T08:54:18.323Z,17.90
2018-05-13T08:56:46.294Z,16.10
2018-05-13T08:59:14.325Z,14.97
2018-05-13T09:01:42.567Z,14.67
2018-05-13T09:04:10.528Z,14.07
2018-05-13T09:06:38.447Z,14.40
2018-05-13T09:09:06.442Z,16.20
2018-05-13T09:11:34.480Z,14.20
2018-05-13T09:14:02.518Z,15.07
2018-05-13T09:16:30.583Z,12.67
2018-05-13T09:18:58.557Z,12.07
2018-05-13T09:21:26.577Z,12.40
2018-05-13T09:23:54.475Z,11.17
2018-05-13T09:26:22.546Z,10.83
2018-05-13T09:28:50.551Z,9.27
2018-05-13T09:31:18.483Z,10.67
2018-05-13T09:33:46.431Z,9.30
2018-05-13T09:36:14.351Z,8.67
2018-05-13T09:38:42.371Z,6.90
2018-05-13T09:41:10.330Z,7.30
2018-05-13T09:43:38.280Z,6.47
2018-05-13T09:46:06.317Z,6.27
2018-05-13T09:48:34.291Z,5.60
2018-05-13T09:51:02.538Z,6.37
2018-05-13T09:53:30.601Z,6.40
2018-05-13T09:55:58.561Z,5.70
2018-05-13T09:58:26.412Z,5.40
2018-05-13T10:00:54.424Z,6.07
2018-05-13T10:03:22.334Z,5.53
2018-05-13T10:05:50.294Z,5.90
2018-05-13T10:08:18.255Z,5.23
2018-05-13T10:10:46.154Z,4.90
2018-05-13T10:13:14.119Z,5.60
2018-05-13T10:15:42.098Z,5.63
2018-05-13T10:18:10.102Z,5.50
2018-05-13T10:20:38.026Z,5.87
2018-05-13T10:23:06.024Z,5.20
2018-05-13T10:25:34.011Z,5.40
2018-05-13T10:28:02.508Z,4.90
2018-05-13T10:30:30.499Z,5.30
2018-05-13T10:32:58.494Z,5.60
2018-05-13T10:35:26.563Z,5.10
2018-05-13T10:37:54.483Z,5.87
2018-05-13T10:40:22.408Z,5.53
2018-05-13T10:42:50.318Z,6.17
2018-05-13T10:45:18.325Z,5.30
2018-05-13T10:47:46.255Z,5.40
2018-05-13T10:50:14.222Z,5.87
2018-05-13T10:52:42.140Z,5.40
2018-05-13T10:55:10.094Z,5.87
2018-05-13T10:57:38.024Z,5.50
2018-05-13T11:00:05.972Z,5.67
2018-05-13T11:02:33.891Z,5.70
2018-05-13T11:05:01.844Z,6.53
2018-05-13T11:07:29.777Z,5.67
2018-05-13T11:09:57.681Z,5.40
2018-05-13T11:12:25.614Z,5.60
2018-05-13T11:14:53.537Z,5.53
2018-05-13T11:17:21.515Z,6.00
2018-05-13T11:19:49.405Z,5.87
2018-05-13T11:22:17.359Z,5.40
2018-05-13T11:24:45.275Z,6.33
2018-05-13T11:27:13.393Z,6.23
2018-05-13T11:29:41.319Z,6.00
2018-05-13T11:32:09.280Z,5.87
2018-05-13T11:34:37.213Z,5.20
2018-05-13T11:37:05.220Z,5.57
2018-05-13T11:39:33.180Z,5.80
2018-05-13T11:42:01.124Z,6.70
2018-05-13T11:44:29.182Z,5.73
2018-05-13T11:46:57.202Z,5.37
2018-05-13T11:49:25.102Z,6.07
2018-05-13T11:51:53.026Z,4.90
2018-05-13T11:54:21.726Z,6.23
2018-05-13T11:56:49.723Z,5.67
2018-05-13T11:59:17.643Z,5.87
2018-05-13T12:01:45.600Z,5.80
2018-05-13T12:04:13.573Z,6.87
2018-05-13T12:06:41.674Z,6.40
2018-05-13T12:09:09.700Z,6.03
2018-05-13T12:11:37.662Z,5.67
2018-05-13T12:14:05.583Z,5.93
2018-05-13T12:16:33.515Z,5.57
2018-05-13T12:19:02.235Z,5.77
2018-05-13T12:21:30.237Z,6.07
2018-05-13T12:23:58.151Z,6.30
2018-05-13T12:26:26.169Z,5.60
2018-05-13T12:28:54.281Z,5.20
2018-05-13T12:31:22.106Z,6.23
2018-05-13T12:33:50.015Z,6.33
2018-05-13T12:36:18.084Z,5.90
2018-05-13T12:38:46.006Z,5.50
2018-05-13T12:41:13.923Z,6.10
2018-05-13T12:43:41.871Z,4.73
2018-05-13T12:46:09.888Z,5.00
2018-05-13T12:48:37.933Z,5.50
2018-05-13T12:51:05.888Z,5.27
2018-05-13T12:53:33.875Z,4.60
2018-05-13T12:56:01.821Z,6.33
2018-05-13T12:58:29.770Z,5.00
2018-05-13T13:00:57.714Z,4.97
2018-05-13T13:03:25.663Z,4.97
2018-05-13T13:05:53.628Z,6.10
2018-05-13T13:08:21.555Z,5.43
2018-05-13T13:10:49.531Z,6.10
2018-05-13T13:13:17.429Z,5.20
2018-05-13T13:15:45.399Z,6.50
2018-05-13T13:18:13.376Z,5.47
2018-05-13T13:20:41.278Z,5.53
2018-05-13T13:23:09.220Z,6.17
2018-05-13T13:25:37.445Z,5.20
2018-05-13T13:28:05.411Z,5.67
2018-05-13T13:30:33.353Z,5.80
2018-05-13T13:33:01.339Z,5.50
2018-05-13T13:35:29.221Z,4.80
2018-05-13T13:37:57.143Z,5.80
2018-05-13T13:40:25.095Z,5.77
2018-05-13T13:42:53.024Z,5.40
2018-05-13T13:45:21.030Z,5.83
2018-05-13T13:47:49.080Z,5.30
2018-05-13T13:50:17.005Z,5.23
2018-05-13T13:52:44.933Z,4.70
2018-05-13T13:55:12.868Z,4.90
2018-05-13T13:57:40.774Z,4.70
2018-05-13T14:00:08.704Z,5.90
2018-05-13T14:02:36.607Z,5.20
2018-05-13T14:05:04.576Z,4.67
2018-05-13T14:07:32.540Z,4.70
2018-05-13T14:10:00.459Z,5.20
2018-05-13T14:12:28.357Z,4.43
2018-05-13T14:14:56.295Z,4.83
2018-05-13T14:17:24.235Z,5.07
2018-05-13T14:19:52.151Z,4.53
2018-05-13T14:22:20.668Z,5.00
2018-05-13T14:24:48.647Z,4.00
2018-05-13T14:27:16.682Z,4.27
2018-05-13T14:29:44.685Z,4.50
2018-05-13T14:32:12.698Z,4.73
2018-05-13T14:34:40.662Z,4.27
2018-05-13T14:37:09.211Z,4.27
2018-05-13T14:39:37.184Z,4.80
2018-05-13T14:42:05.102Z,4.40
2018-05-13T14:44:33.143Z,4.80
2018-05-13T14:47:01.060Z,6.10
2018-05-13T14:49:29.006Z,4.17
2018-05-13T14:51:56.908Z,5.53
2018-05-13T14:54:24.820Z,4.13
2018-05-13T14:56:52.732Z,3.90
2018-05-13T14:59:20.665Z,4.47
2018-05-13T15:01:48.631Z,4.10
2018-05-13T15:04:16.571Z,4.70
2018-05-13T15:06:44.618Z,4.27
2018-05-13T15:09:12.684Z,3.97
2018-05-13T15:11:40.593Z,4.10
2018-05-13T15:14:08.535Z,4.63
2018-05-13T15:16:36.469Z,3.87
2018-05-13T15:19:04.419Z,4.23
2018-05-13T15:21:32.431Z,4.00
2018-05-13T15:24:00.349Z,3.63
2018-05-13T15:26:28.263Z,4.20
2018-05-13T15:28:56.339Z,4.13
2018-05-13T15:31:24.219Z,4.00
2018-05-13T15:33:52.124Z,3.90
2018-05-13T15:36:20.037Z,4.10
2018-05-13T15:38:47.946Z,4.00
2018-05-13T15:41:15.905Z,4.00
2018-05-13T15:43:43.797Z,4.53
2018-05-13T15:46:11.721Z,4.33
2018-05-13T15:48:39.633Z,4.23
2018-05-13T15:51:07.575Z,4.00
2018-05-13T15:53:35.493Z,4.67
2018-05-13T15:56:03.510Z,4.17
2018-05-13T15:58:31.511Z,4.50
2018-05-13T16:00:59.447Z,3.93
2018-05-13T16:03:27.375Z,3.90
2018-05-13T16:05:55.316Z,4.20
2018-05-13T16:08:23.368Z,4.87
2018-05-13T16:10:51.281Z,4.63
2018-05-13T16:13:19.339Z,4.23
2018-05-13T16:15:47.248Z,4.43
2018-05-13T16:18:15.175Z,4.67
2018-05-13T16:20:43.107Z,4.00
2018-05-13T16:23:11.120Z,4.07
2018-05-13T16:25:39.036Z,4.57
2018-05-13T16:28:06.965Z,5.03
2018-05-13T16:30:34.911Z,4.67
2018-05-13T16:33:02.832Z,4.73
2018-05-13T16:35:30.821Z,4.80
2018-05-13T16:37:58.731Z,4.30
2018-05-13T16:40:26.667Z,4.07
2018-05-13T16:42:54.597Z,4.90
2018-05-13T16:45:22.556Z,4.20
2018-05-13T16:47:50.488Z,4.40
2018-05-13T16:50:18.417Z,4.53
2018-05-13T16:52:46.483Z,4.43
2018-05-13T16:55:14.436Z,4.07
2018-05-13T16:57:42.363Z,3.90
2018-05-13T17:00:10.353Z,4.27
2018-05-13T17:02:38.365Z,4.90
2018-05-13T17:05:06.437Z,3.87
2018-05-13T17:07:34.574Z,4.30
2018-05-13T17:10:02.488Z,4.20
2018-05-13T17:12:30.400Z,4.93
2018-05-13T17:14:58.682Z,4.00
2018-05-13T17:17:26.635Z,5.10
2018-05-13T17:19:54.579Z,4.83
2018-05-13T17:22:22.541Z,5.07
2018-05-13T17:24:50.463Z,4.70
2018-05-13T17:27:18.375Z,4.33
2018-05-13T17:29:46.393Z,4.60
2018-05-13T17:32:14.351Z,4.60
2018-05-13T17:34:42.324Z,3.93
2018-05-13T17:37:10.312Z,4.40
2018-05-13T17:39:38.262Z,4.60
2018-05-13T17:42:06.294Z,4.90
2018-05-13T17:44:34.236Z,4.73
2018-05-13T17:47:02.162Z,4.50
2018-05-13T17:49:30.404Z,4.27
2018-05-13T17:51:58.608Z,5.07
2018-05-13T17:54:26.551Z,4.90
2018-05-13T17:56:54.471Z,4.73
2018-05-13T17:59:22.490Z,4.40
2018-05-13T18:01:50.459Z,4.37
2018-05-13T18:04:18.364Z,4.67
2018-05-13T18:06:46.268Z,4.73
2018-05-13T18:09:14.233Z,5.07
2018-05-13T18:11:42.217Z,4.80
2018-05-13T18:14:10.094Z,4.80
2018-05-13T18:16:38.134Z,4.90
2018-05-13T18:19:06.157Z,4.47
2018-05-13T18:21:34.329Z,5.60
2018-05-13T18:24:02.255Z,13.60
2018-05-13T18:26:30.167Z,4.20
2018-05-13T18:28:58.417Z,5.00
2018-05-13T18:31:26.432Z,4.70
2018-05-13T18:33:54.327Z,5.47
2018-05-13T18:36:22.371Z,4.47
2018-05-13T18:38:50.295Z,4.43
2018-05-13T18:41:18.220Z,5.00
2018-05-13T18:43:46.160Z,4.60
2018-05-13T18:46:14.075Z,3.90
2018-05-13T18:48:42.025Z,4.10
2018-05-13T18:51:09.991Z,4.30
2018-05-13T18:53:37.881Z,3.90
2018-05-13T18:56:05.818Z,4.50
2018-05-13T18:58:33.750Z,4.80
2018-05-13T19:01:01.703Z,4.50
2018-05-13T19:03:29.603Z,4.83
2018-05-13T19:05:57.549Z,4.37
2018-05-13T19:08:25.495Z,4.90
2018-05-13T19:10:53.483Z,4.40
2018-05-13T19:13:21.408Z,5.00
2018-05-13T19:15:49.300Z,4.20
2018-05-13T19:18:17.228Z,3.97
2018-05-13T19:20:45.281Z,4.40
2018-05-13T19:23:13.206Z,3.63
2018-05-13T19:25:41.128Z,4.23
2018-05-13T19:28:09.065Z,3.97
2018-05-13T19:30:37.004Z,4.60
2018-05-13T19:33:04.952Z,4.27
2018-05-13T19:35:32.936Z,4.50
2018-05-13T19:38:00.992Z,4.00
2018-05-13T19:40:28.907Z,4.57
2018-05-13T19:42:56.951Z,4.13
2018-05-13T19:45:24.877Z,4.20
2018-05-13T19:47:52.793Z,3.90
2018-05-13T19:50:20.699Z,4.77
2018-05-13T19:52:48.649Z,3.93
2018-05-13T19:55:16.800Z,4.60
2018-05-13T19:57:46.286Z,4.40
2018-05-13T20:00:14.359Z,5.03
2018-05-13T20:02:42.309Z,4.23
2018-05-13T20:05:10.243Z,4.20
2018-05-13T20:07:38.181Z,4.57
2018-05-13T20:10:06.284Z,4.70
2018-05-13T20:12:34.175Z,4.60
2018-05-13T20:15:02.135Z,4.30
2018-05-13T20:17:30.500Z,4.43
2018-05-13T20:19:58.425Z,4.60
2018-05-13T20:22:26.321Z,4.30
2018-05-13T20:24:54.308Z,4.23
2018-05-13T20:27:22.321Z,4.60
2018-05-13T20:29:50.288Z,68.43
2018-05-13T20:32:18.234Z,140.37
2018-05-13T20:34:46.151Z,74.60
2018-05-13T20:37:14.112Z,75.90
2018-05-13T20:39:42.904Z,100.67
2018-05-13T20:42:10.872Z,32.70
2018-05-13T20:44:38.930Z,141.10
2018-05-13T20:47:06.899Z,89.80
2018-05-13T20:49:34.883Z,85.53
2018-05-13T20:52:02.788Z,36.43
2018-05-13T20:54:30.821Z,18.83
2018-05-13T20:56:58.751Z,15.00
2018-05-13T20:59:26.816Z,101.40
2018-05-13T21:01:54.783Z,113.77
2018-05-13T21:04:22.759Z,133.87
2018-05-13T21:06:50.749Z,81.80
2018-05-13T21:09:18.839Z,60.40
2018-05-13T21:11:46.798Z,102.50
2018-05-13T21:14:14.828Z,128.83
2018-05-13T21:16:42.835Z,55.03
2018-05-13T21:19:10.780Z,42.63
2018-05-13T21:21:38.816Z,8.47
2018-05-13T21:24:06.754Z,15.30
2018-05-13T21:26:34.691Z,11.20
2018-05-13T21:29:02.818Z,7.03
2018-05-13T21:31:30.605Z,6.23
2018-05-13T21:33:58.525Z,6.90
2018-05-13T21:36:26.456Z,5.77
2018-05-13T21:38:54.361Z,6.33
2018-05-13T21:41:22.391Z,6.00
2018-05-13T21:43:50.429Z,5.60
2018-05-13T21:46:18.369Z,5.23
2018-05-13T21:48:46.574Z,6.20
2018-05-13T21:51:14.492Z,5.00
2018-05-13T21:53:43.034Z,5.97
2018-05-13T21:56:10.983Z,5.13
2018-05-13T21:58:38.982Z,5.40
2018-05-13T22:01:06.894Z,5.73
2018-05-13T22:03:34.829Z,5.60
2018-05-13T22:06:02.737Z,5.43
2018-05-13T22:08:30.688Z,5.87
2018-05-13T22:10:58.616Z,5.60
2018-05-13T22:13:26.905Z,5.10
2018-05-13T22:15:54.849Z,5.70
2018-05-13T22:18:22.800Z,5.20
2018-05-13T22:20:50.759Z,8.13
2018-05-13T22:23:18.738Z,6.67
2018-05-13T22:25:46.743Z,5.90
2018-05-13T22:28:14.614Z,5.40
2018-05-13T22:30:43.351Z,5.40
2018-05-13T22:33:11.391Z,5.63
2018-05-13T22:35:39.414Z,7.53
2018-05-13T22:38:07.481Z,6.10
2018-05-13T22:40:35.456Z,5.10
2018-05-13T22:43:03.405Z,5.60
2018-05-13T22:45:31.323Z,5.57
2018-05-13T22:47:59.243Z,5.77
2018-05-13T22:50:27.168Z,5.67
2018-05-13T22:52:55.102Z,5.63
2018-05-13T22:55:23.061Z,6.20
2018-05-13T22:57:51.202Z,6.20
2018-05-13T23:00:19.959Z,5.90
2018-05-13T23:02:47.891Z,5.80
2018-05-13T23:05:15.884Z,5.90
2018-05-13T23:07:43.791Z,6.00
2018-05-13T23:10:11.824Z,5.73
2018-05-13T23:12:39.733Z,5.93
2018-05-13T23:15:07.683Z,5.90
2018-05-13T23:17:35.635Z,5.33
2018-05-13T23:20:03.541Z,5.70
2018-05-13T23:22:34.985Z,5.63
2018-05-13T23:25:03.020Z,5.53
2018-05-13T23:27:30.930Z,5.77
2018-05-13T23:29:58.856Z,5.63
2018-05-13T23:32:26.765Z,6.10
2018-05-13T23:34:54.731Z,5.63
2018-05-13T23:37:22.699Z,5.03
2018-05-13T23:39:50.625Z,5.37
2018-05-13T23:42:18.541Z,5.47
2018-05-13T23:44:46.656Z,5.97
2018-05-13T23:47:14.578Z,5.30
2018-05-13T23:49:42.533Z,5.90
2018-05-13T23:52:10.512Z,6.30
2018-05-13T23:54:38.453Z,6.07
2018-05-13T23:57:06.386Z,5.77
2018-05-13T23:59:34.323Z,5.90
